KSDA

Shenandoah Municipal Airport

Shenandoah, Iowa, USA
METAR KSDA 201255Z AUTO 00000KT 10SM CLR M03/M04 A2984 RMK AO2
Observed Flight Rules
Jan-20 @ 12:55 UTC (16 minutes ago) Visual Flight Rules
Wind Visibility Clouds
Calm 10 miles
  • Clear skies
Temperatures Readings
Current -3°C / 27°F
Dewpoint -4°C / 25°F
Humidity 93%
Altimeter 29.84" Hg
Pressure 1010 hPa
Elevation 296
METAR KSDA 201255Z AUTO 00000KT 10SM CLR M03/M04 A2984 RMK AO2
Observed Flight Rules
Jan-20 @ 12:55 UTC
(16 minutes ago)
VFR
Wind Visibility
Calm 10 miles
Clouds
  • Clear skies
Temperature Dewpoint
-3°C / 27°F -4°C / 25°F
Humidity Altimeter Pressure
93% 29.84" Hg 1010 hPa